sensor_id;sensor_type;location;lat;lon;timestamp;P1;durP1;ratioP1;P2;durP2;ratioP2
77105;SDS011;66057;54.718;18.426;2023-06-26T00:02:25;13.35;;;6.57;;
77105;SDS011;66057;54.718;18.426;2023-06-26T00:04:51;11.55;;;7.57;;
77105;SDS011;66057;54.718;18.426;2023-06-26T00:07:19;15.20;;;7.10;;
77105;SDS011;66057;54.718;18.426;2023-06-26T00:09:45;13.13;;;7.18;;
77105;SDS011;66057;54.718;18.426;2023-06-26T00:12:11;14.07;;;6.78;;
77105;SDS011;66057;54.718;18.426;2023-06-26T00:14:37;15.77;;;8.18;;
77105;SDS011;66057;54.718;18.426;2023-06-26T00:17:03;16.30;;;8.15;;
77105;SDS011;66057;54.718;18.426;2023-06-26T00:19:29;18.75;;;9.70;;
77105;SDS011;66057;54.718;18.426;2023-06-26T00:21:54;15.95;;;8.55;;
77105;SDS011;66057;54.718;18.426;2023-06-26T00:24:20;16.33;;;9.75;;
77105;SDS011;66057;54.718;18.426;2023-06-26T00:26:46;15.73;;;8.38;;
77105;SDS011;66057;54.718;18.426;2023-06-26T00:29:13;19.23;;;9.93;;
77105;SDS011;66057;54.718;18.426;2023-06-26T00:31:39;17.95;;;9.70;;
77105;SDS011;66057;54.718;18.426;2023-06-26T00:36:31;18.65;;;9.13;;
77105;SDS011;66057;54.718;18.426;2023-06-26T00:38:59;18.38;;;9.50;;
77105;SDS011;66057;54.718;18.426;2023-06-26T00:41:25;18.05;;;9.45;;
77105;SDS011;66057;54.718;18.426;2023-06-26T00:43:51;17.25;;;8.85;;
77105;SDS011;66057;54.718;18.426;2023-06-26T00:46:17;16.25;;;9.10;;
77105;SDS011;66057;54.718;18.426;2023-06-26T00:48:43;17.15;;;9.63;;
77105;SDS011;66057;54.718;18.426;2023-06-26T00:51:11;17.35;;;9.07;;
77105;SDS011;66057;54.718;18.426;2023-06-26T00:53:37;19.67;;;10.57;;
77105;SDS011;66057;54.718;18.426;2023-06-26T00:56:03;21.90;;;10.77;;
77105;SDS011;66057;54.718;18.426;2023-06-26T00:58:30;20.63;;;9.77;;
77105;SDS011;66057;54.718;18.426;2023-06-26T01:00:56;17.58;;;9.75;;
77105;SDS011;66057;54.718;18.426;2023-06-26T01:03:26;19.85;;;10.00;;
77105;SDS011;66057;54.718;18.426;2023-06-26T01:05:52;18.52;;;9.23;;
77105;SDS011;66057;54.718;18.426;2023-06-26T01:08:19;17.20;;;7.93;;
77105;SDS011;66057;54.718;18.426;2023-06-26T01:10:45;20.63;;;9.40;;
77105;SDS011;66057;54.718;18.426;2023-06-26T01:13:13;19.85;;;9.23;;
77105;SDS011;66057;54.718;18.426;2023-06-26T01:15:40;25.13;;;8.80;;
77105;SDS011;66057;54.718;18.426;2023-06-26T01:18:06;28.15;;;10.38;;
77105;SDS011;66057;54.718;18.426;2023-06-26T01:20:38;33.88;;;8.60;;
77105;SDS011;66057;54.718;18.426;2023-06-26T01:23:22;51.60;;;11.20;;
77105;SDS011;66057;54.718;18.426;2023-06-26T01:28:33;49.97;;;11.77;;
77105;SDS011;66057;54.718;18.426;2023-06-26T01:31:02;61.88;;;12.32;;
77105;SDS011;66057;54.718;18.426;2023-06-26T01:33:29;68.75;;;12.93;;
77105;SDS011;66057;54.718;18.426;2023-06-26T01:35:55;60.85;;;13.18;;
77105;SDS011;66057;54.718;18.426;2023-06-26T01:38:21;72.10;;;13.60;;
77105;SDS011;66057;54.718;18.426;2023-06-26T01:40:51;74.13;;;13.40;;
77105;SDS011;66057;54.718;18.426;2023-06-26T01:46:16;73.65;;;11.38;;
77105;SDS011;66057;54.718;18.426;2023-06-26T01:51:20;44.83;;;9.85;;
77105;SDS011;66057;54.718;18.426;2023-06-26T01:53:53;41.35;;;10.73;;
77105;SDS011;66057;54.718;18.426;2023-06-26T01:56:22;33.47;;;11.57;;
77105;SDS011;66057;54.718;18.426;2023-06-26T01:58:50;36.10;;;9.57;;
77105;SDS011;66057;54.718;18.426;2023-06-26T02:01:20;56.70;;;12.18;;
77105;SDS011;66057;54.718;18.426;2023-06-26T02:03:47;60.13;;;12.98;;
77105;SDS011;66057;54.718;18.426;2023-06-26T02:06:13;45.83;;;11.30;;
77105;SDS011;66057;54.718;18.426;2023-06-26T02:08:39;32.33;;;9.18;;
77105;SDS011;66057;54.718;18.426;2023-06-26T02:11:05;46.97;;;10.88;;
77105;SDS011;66057;54.718;18.426;2023-06-26T02:13:31;44.83;;;11.43;;
77105;SDS011;66057;54.718;18.426;2023-06-26T02:15:56;48.25;;;11.05;;
77105;SDS011;66057;54.718;18.426;2023-06-26T02:18:23;47.03;;;13.35;;
77105;SDS011;66057;54.718;18.426;2023-06-26T02:20:49;38.47;;;11.02;;
77105;SDS011;66057;54.718;18.426;2023-06-26T02:23:15;29.60;;;10.18;;
77105;SDS011;66057;54.718;18.426;2023-06-26T02:25:41;26.77;;;9.65;;
77105;SDS011;66057;54.718;18.426;2023-06-26T02:28:07;28.92;;;10.50;;
77105;SDS011;66057;54.718;18.426;2023-06-26T02:30:32;32.17;;;11.85;;
77105;SDS011;66057;54.718;18.426;2023-06-26T02:32:58;38.70;;;11.13;;
77105;SDS011;66057;54.718;18.426;2023-06-26T02:35:24;30.05;;;11.13;;
77105;SDS011;66057;54.718;18.426;2023-06-26T02:37:49;34.38;;;11.70;;
77105;SDS011;66057;54.718;18.426;2023-06-26T02:40:15;37.17;;;12.60;;
77105;SDS011;66057;54.718;18.426;2023-06-26T02:42:41;31.92;;;11.95;;
77105;SDS011;66057;54.718;18.426;2023-06-26T02:45:07;22.38;;;10.85;;
77105;SDS011;66057;54.718;18.426;2023-06-26T02:47:33;26.50;;;9.85;;
77105;SDS011;66057;54.718;18.426;2023-06-26T02:49:59;27.73;;;10.40;;
77105;SDS011;66057;54.718;18.426;2023-06-26T02:52:25;32.55;;;11.07;;
77105;SDS011;66057;54.718;18.426;2023-06-26T02:54:52;44.10;;;11.57;;
77105;SDS011;66057;54.718;18.426;2023-06-26T02:57:21;34.30;;;10.90;;
77105;SDS011;66057;54.718;18.426;2023-06-26T02:59:46;27.33;;;10.43;;
77105;SDS011;66057;54.718;18.426;2023-06-26T03:02:12;24.42;;;10.82;;
77105;SDS011;66057;54.718;18.426;2023-06-26T03:04:37;22.27;;;9.02;;
77105;SDS011;66057;54.718;18.426;2023-06-26T03:07:03;26.75;;;8.65;;
77105;SDS011;66057;54.718;18.426;2023-06-26T03:09:30;29.70;;;9.90;;
77105;SDS011;66057;54.718;18.426;2023-06-26T03:11:55;24.33;;;9.35;;
77105;SDS011;66057;54.718;18.426;2023-06-26T03:14:22;28.60;;;9.30;;
77105;SDS011;66057;54.718;18.426;2023-06-26T03:19:14;22.98;;;8.43;;
77105;SDS011;66057;54.718;18.426;2023-06-26T03:21:40;21.30;;;8.82;;
77105;SDS011;66057;54.718;18.426;2023-06-26T03:24:06;21.63;;;9.40;;
77105;SDS011;66057;54.718;18.426;2023-06-26T03:26:32;19.08;;;8.35;;
77105;SDS011;66057;54.718;18.426;2023-06-26T03:28:57;21.10;;;8.35;;
77105;SDS011;66057;54.718;18.426;2023-06-26T03:31:23;22.23;;;9.98;;
77105;SDS011;66057;54.718;18.426;2023-06-26T03:33:49;19.45;;;9.13;;
77105;SDS011;66057;54.718;18.426;2023-06-26T03:36:15;15.50;;;8.48;;
77105;SDS011;66057;54.718;18.426;2023-06-26T03:38:40;18.38;;;8.82;;
77105;SDS011;66057;54.718;18.426;2023-06-26T03:41:06;13.50;;;8.45;;
77105;SDS011;66057;54.718;18.426;2023-06-26T03:43:32;15.13;;;8.43;;
77105;SDS011;66057;54.718;18.426;2023-06-26T03:45:58;17.08;;;8.85;;
77105;SDS011;66057;54.718;18.426;2023-06-26T03:48:25;12.90;;;8.43;;
77105;SDS011;66057;54.718;18.426;2023-06-26T03:50:50;13.82;;;9.02;;
77105;SDS011;66057;54.718;18.426;2023-06-26T03:53:16;14.80;;;8.98;;
77105;SDS011;66057;54.718;18.426;2023-06-26T03:55:42;12.32;;;8.00;;
77105;SDS011;66057;54.718;18.426;2023-06-26T03:58:08;13.77;;;9.20;;
77105;SDS011;66057;54.718;18.426;2023-06-26T04:00:34;13.20;;;8.27;;
77105;SDS011;66057;54.718;18.426;2023-06-26T04:02:59;14.48;;;8.48;;
77105;SDS011;66057;54.718;18.426;2023-06-26T04:05:25;13.73;;;7.70;;
77105;SDS011;66057;54.718;18.426;2023-06-26T04:07:51;12.48;;;7.57;;
77105;SDS011;66057;54.718;18.426;2023-06-26T04:10:18;11.10;;;7.38;;
77105;SDS011;66057;54.718;18.426;2023-06-26T04:12:47;11.55;;;7.93;;
77105;SDS011;66057;54.718;18.426;2023-06-26T04:15:13;10.70;;;6.85;;
77105;SDS011;66057;54.718;18.426;2023-06-26T04:17:39;13.38;;;7.95;;
77105;SDS011;66057;54.718;18.426;2023-06-26T04:20:05;11.38;;;8.20;;
77105;SDS011;66057;54.718;18.426;2023-06-26T04:22:32;12.63;;;7.88;;
77105;SDS011;66057;54.718;18.426;2023-06-26T04:25:00;9.93;;;6.63;;
77105;SDS011;66057;54.718;18.426;2023-06-26T04:27:30;9.98;;;6.53;;
77105;SDS011;66057;54.718;18.426;2023-06-26T04:29:56;9.48;;;6.47;;
77105;SDS011;66057;54.718;18.426;2023-06-26T04:32:22;10.98;;;6.53;;
77105;SDS011;66057;54.718;18.426;2023-06-26T04:34:49;13.02;;;6.57;;
77105;SDS011;66057;54.718;18.426;2023-06-26T04:37:14;11.85;;;7.50;;
77105;SDS011;66057;54.718;18.426;2023-06-26T04:39:43;14.25;;;6.72;;
77105;SDS011;66057;54.718;18.426;2023-06-26T04:42:09;9.73;;;6.20;;
77105;SDS011;66057;54.718;18.426;2023-06-26T04:44:38;9.60;;;6.32;;
77105;SDS011;66057;54.718;18.426;2023-06-26T04:47:03;11.30;;;7.18;;
77105;SDS011;66057;54.718;18.426;2023-06-26T04:49:29;12.35;;;7.07;;
77105;SDS011;66057;54.718;18.426;2023-06-26T04:51:55;10.48;;;6.03;;
77105;SDS011;66057;54.718;18.426;2023-06-26T04:54:21;10.73;;;6.35;;
77105;SDS011;66057;54.718;18.426;2023-06-26T04:56:48;9.63;;;6.07;;
77105;SDS011;66057;54.718;18.426;2023-06-26T04:59:14;9.65;;;5.82;;
77105;SDS011;66057;54.718;18.426;2023-06-26T05:01:40;9.00;;;5.60;;
77105;SDS011;66057;54.718;18.426;2023-06-26T05:04:06;9.82;;;6.03;;
77105;SDS011;66057;54.718;18.426;2023-06-26T05:06:32;10.30;;;6.68;;
77105;SDS011;66057;54.718;18.426;2023-06-26T05:08:58;9.27;;;6.00;;
77105;SDS011;66057;54.718;18.426;2023-06-26T05:11:25;9.57;;;5.40;;
77105;SDS011;66057;54.718;18.426;2023-06-26T05:13:51;8.60;;;5.85;;
77105;SDS011;66057;54.718;18.426;2023-06-26T05:16:17;8.98;;;4.40;;
77105;SDS011;66057;54.718;18.426;2023-06-26T05:18:43;7.60;;;4.72;;
77105;SDS011;66057;54.718;18.426;2023-06-26T05:21:08;9.95;;;5.22;;
77105;SDS011;66057;54.718;18.426;2023-06-26T05:26:02;6.50;;;4.20;;
77105;SDS011;66057;54.718;18.426;2023-06-26T05:28:28;8.73;;;4.70;;
77105;SDS011;66057;54.718;18.426;2023-06-26T05:30:56;12.32;;;5.75;;
77105;SDS011;66057;54.718;18.426;2023-06-26T05:33:24;10.13;;;5.13;;
77105;SDS011;66057;54.718;18.426;2023-06-26T05:35:51;13.45;;;5.03;;
77105;SDS011;66057;54.718;18.426;2023-06-26T05:38:18;11.27;;;5.65;;
77105;SDS011;66057;54.718;18.426;2023-06-26T05:40:45;10.00;;;5.75;;
77105;SDS011;66057;54.718;18.426;2023-06-26T05:43:11;7.88;;;4.20;;
77105;SDS011;66057;54.718;18.426;2023-06-26T05:48:03;6.82;;;3.53;;
77105;SDS011;66057;54.718;18.426;2023-06-26T05:50:29;5.90;;;3.92;;
77105;SDS011;66057;54.718;18.426;2023-06-26T05:55:21;6.70;;;4.45;;
77105;SDS011;66057;54.718;18.426;2023-06-26T05:57:48;7.50;;;3.80;;
77105;SDS011;66057;54.718;18.426;2023-06-26T06:00:16;11.38;;;3.95;;
77105;SDS011;66057;54.718;18.426;2023-06-26T06:02:42;6.32;;;3.40;;
77105;SDS011;66057;54.718;18.426;2023-06-26T06:07:35;7.15;;;3.85;;
77105;SDS011;66057;54.718;18.426;2023-06-26T06:10:02;11.55;;;4.90;;
77105;SDS011;66057;54.718;18.426;2023-06-26T06:12:29;9.27;;;3.35;;
77105;SDS011;66057;54.718;18.426;2023-06-26T06:14:55;4.93;;;3.17;;
77105;SDS011;66057;54.718;18.426;2023-06-26T06:17:22;5.53;;;3.10;;
77105;SDS011;66057;54.718;18.426;2023-06-26T06:19:48;4.32;;;2.90;;
77105;SDS011;66057;54.718;18.426;2023-06-26T06:22:17;6.10;;;3.08;;
77105;SDS011;66057;54.718;18.426;2023-06-26T06:24:42;5.97;;;2.75;;
77105;SDS011;66057;54.718;18.426;2023-06-26T06:27:09;4.55;;;3.20;;
77105;SDS011;66057;54.718;18.426;2023-06-26T06:29:35;5.13;;;3.00;;
77105;SDS011;66057;54.718;18.426;2023-06-26T06:32:01;9.95;;;3.92;;
77105;SDS011;66057;54.718;18.426;2023-06-26T06:34:27;8.07;;;2.90;;
77105;SDS011;66057;54.718;18.426;2023-06-26T06:36:53;11.07;;;5.22;;
77105;SDS011;66057;54.718;18.426;2023-06-26T06:39:18;5.03;;;2.88;;
77105;SDS011;66057;54.718;18.426;2023-06-26T06:41:44;7.15;;;3.25;;
77105;SDS011;66057;54.718;18.426;2023-06-26T06:44:10;10.85;;;4.43;;
77105;SDS011;66057;54.718;18.426;2023-06-26T06:46:38;7.75;;;3.80;;
77105;SDS011;66057;54.718;18.426;2023-06-26T06:49:04;5.75;;;3.42;;
77105;SDS011;66057;54.718;18.426;2023-06-26T06:51:31;8.50;;;3.28;;
77105;SDS011;66057;54.718;18.426;2023-06-26T06:53:56;8.60;;;3.50;;
77105;SDS011;66057;54.718;18.426;2023-06-26T06:56:22;6.22;;;3.28;;
77105;SDS011;66057;54.718;18.426;2023-06-26T06:58:48;5.25;;;3.20;;
77105;SDS011;66057;54.718;18.426;2023-06-26T07:01:15;5.47;;;3.40;;
77105;SDS011;66057;54.718;18.426;2023-06-26T07:03:41;12.63;;;4.35;;
77105;SDS011;66057;54.718;18.426;2023-06-26T07:06:07;6.18;;;3.60;;
77105;SDS011;66057;54.718;18.426;2023-06-26T07:08:33;6.53;;;3.63;;
77105;SDS011;66057;54.718;18.426;2023-06-26T07:11:01;6.10;;;4.03;;
77105;SDS011;66057;54.718;18.426;2023-06-26T07:13:28;7.15;;;4.13;;
77105;SDS011;66057;54.718;18.426;2023-06-26T07:15:54;7.15;;;4.20;;
77105;SDS011;66057;54.718;18.426;2023-06-26T07:18:20;6.50;;;4.43;;
77105;SDS011;66057;54.718;18.426;2023-06-26T07:20:47;7.90;;;3.90;;
77105;SDS011;66057;54.718;18.426;2023-06-26T07:25:43;14.77;;;5.85;;
77105;SDS011;66057;54.718;18.426;2023-06-26T07:28:12;7.75;;;3.83;;
77105;SDS011;66057;54.718;18.426;2023-06-26T07:30:38;4.93;;;3.72;;
77105;SDS011;66057;54.718;18.426;2023-06-26T07:33:05;4.85;;;3.30;;
77105;SDS011;66057;54.718;18.426;2023-06-26T07:35:31;4.28;;;3.25;;
77105;SDS011;66057;54.718;18.426;2023-06-26T07:37:58;4.43;;;3.25;;
77105;SDS011;66057;54.718;18.426;2023-06-26T07:40:25;4.93;;;3.60;;
77105;SDS011;66057;54.718;18.426;2023-06-26T07:42:54;5.15;;;3.47;;
77105;SDS011;66057;54.718;18.426;2023-06-26T07:47:46;6.35;;;2.78;;
77105;SDS011;66057;54.718;18.426;2023-06-26T07:50:16;6.65;;;3.50;;
77105;SDS011;66057;54.718;18.426;2023-06-26T07:52:46;4.85;;;2.60;;
77105;SDS011;66057;54.718;18.426;2023-06-26T07:55:13;4.88;;;2.40;;
77105;SDS011;66057;54.718;18.426;2023-06-26T07:57:43;7.07;;;2.83;;
77105;SDS011;66057;54.718;18.426;2023-06-26T08:00:12;2.63;;;1.70;;
77105;SDS011;66057;54.718;18.426;2023-06-26T08:02:38;3.50;;;2.22;;
77105;SDS011;66057;54.718;18.426;2023-06-26T08:05:05;3.65;;;2.00;;
77105;SDS011;66057;54.718;18.426;2023-06-26T08:07:31;3.50;;;1.80;;
77105;SDS011;66057;54.718;18.426;2023-06-26T08:09:58;2.38;;;1.67;;
77105;SDS011;66057;54.718;18.426;2023-06-26T08:12:25;2.85;;;2.00;;
77105;SDS011;66057;54.718;18.426;2023-06-26T08:14:51;3.03;;;2.05;;
77105;SDS011;66057;54.718;18.426;2023-06-26T08:17:17;3.20;;;2.22;;
77105;SDS011;66057;54.718;18.426;2023-06-26T08:19:43;37.15;;;8.63;;
77105;SDS011;66057;54.718;18.426;2023-06-26T08:22:08;6.03;;;2.13;;
77105;SDS011;66057;54.718;18.426;2023-06-26T08:24:34;2.85;;;1.95;;
77105;SDS011;66057;54.718;18.426;2023-06-26T08:27:02;3.47;;;1.75;;
77105;SDS011;66057;54.718;18.426;2023-06-26T08:29:29;5.05;;;2.38;;
77105;SDS011;66057;54.718;18.426;2023-06-26T08:31:54;4.78;;;2.30;;
77105;SDS011;66057;54.718;18.426;2023-06-26T08:34:22;4.30;;;2.33;;
77105;SDS011;66057;54.718;18.426;2023-06-26T08:36:48;3.47;;;2.30;;
77105;SDS011;66057;54.718;18.426;2023-06-26T08:39:14;3.10;;;2.00;;
77105;SDS011;66057;54.718;18.426;2023-06-26T08:41:40;2.97;;;1.75;;
77105;SDS011;66057;54.718;18.426;2023-06-26T08:44:07;4.43;;;2.15;;
77105;SDS011;66057;54.718;18.426;2023-06-26T08:46:33;2.88;;;2.17;;
77105;SDS011;66057;54.718;18.426;2023-06-26T08:49:13;4.13;;;2.08;;
77105;SDS011;66057;54.718;18.426;2023-06-26T08:51:45;2.90;;;2.50;;
77105;SDS011;66057;54.718;18.426;2023-06-26T08:54:17;3.53;;;1.92;;
77105;SDS011;66057;54.718;18.426;2023-06-26T08:56:50;3.22;;;1.88;;
77105;SDS011;66057;54.718;18.426;2023-06-26T08:59:16;3.50;;;2.13;;
77105;SDS011;66057;54.718;18.426;2023-06-26T09:01:42;3.22;;;2.40;;
77105;SDS011;66057;54.718;18.426;2023-06-26T09:04:08;3.85;;;2.53;;
77105;SDS011;66057;54.718;18.426;2023-06-26T09:06:34;3.42;;;2.35;;
77105;SDS011;66057;54.718;18.426;2023-06-26T09:09:01;5.22;;;2.40;;
77105;SDS011;66057;54.718;18.426;2023-06-26T09:11:29;3.80;;;2.30;;
77105;SDS011;66057;54.718;18.426;2023-06-26T09:16:24;2.78;;;2.00;;
77105;SDS011;66057;54.718;18.426;2023-06-26T09:18:52;2.97;;;2.40;;
77105;SDS011;66057;54.718;18.426;2023-06-26T09:21:18;4.13;;;2.55;;
77105;SDS011;66057;54.718;18.426;2023-06-26T09:23:45;2.95;;;2.22;;
77105;SDS011;66057;54.718;18.426;2023-06-26T09:26:11;5.03;;;2.47;;
77105;SDS011;66057;54.718;18.426;2023-06-26T09:28:42;4.05;;;2.65;;
77105;SDS011;66057;54.718;18.426;2023-06-26T09:31:08;3.42;;;2.38;;
77105;SDS011;66057;54.718;18.426;2023-06-26T09:33:36;4.38;;;2.47;;
77105;SDS011;66057;54.718;18.426;2023-06-26T09:36:06;4.13;;;2.60;;
77105;SDS011;66057;54.718;18.426;2023-06-26T09:38:35;4.43;;;2.42;;
77105;SDS011;66057;54.718;18.426;2023-06-26T09:41:01;4.35;;;2.88;;
77105;SDS011;66057;54.718;18.426;2023-06-26T09:43:31;3.65;;;2.40;;
77105;SDS011;66057;54.718;18.426;2023-06-26T09:45:57;5.55;;;2.88;;
77105;SDS011;66057;54.718;18.426;2023-06-26T09:48:24;4.60;;;2.78;;
77105;SDS011;66057;54.718;18.426;2023-06-26T09:50:49;5.90;;;2.90;;
77105;SDS011;66057;54.718;18.426;2023-06-26T09:53:15;6.80;;;2.85;;
77105;SDS011;66057;54.718;18.426;2023-06-26T09:55:43;5.15;;;3.00;;
77105;SDS011;66057;54.718;18.426;2023-06-26T09:58:13;4.40;;;2.83;;
77105;SDS011;66057;54.718;18.426;2023-06-26T10:00:42;4.40;;;2.65;;
77105;SDS011;66057;54.718;18.426;2023-06-26T10:03:10;4.20;;;2.40;;
77105;SDS011;66057;54.718;18.426;2023-06-26T10:05:37;4.32;;;2.75;;
77105;SDS011;66057;54.718;18.426;2023-06-26T10:08:06;4.38;;;2.58;;
77105;SDS011;66057;54.718;18.426;2023-06-26T10:10:33;5.03;;;2.67;;
77105;SDS011;66057;54.718;18.426;2023-06-26T10:13:11;4.88;;;2.50;;
77105;SDS011;66057;54.718;18.426;2023-06-26T10:15:47;4.53;;;2.70;;
77105;SDS011;66057;54.718;18.426;2023-06-26T10:18:15;4.28;;;2.70;;
77105;SDS011;66057;54.718;18.426;2023-06-26T10:20:44;4.75;;;2.75;;
77105;SDS011;66057;54.718;18.426;2023-06-26T10:23:14;4.00;;;2.70;;
77105;SDS011;66057;54.718;18.426;2023-06-26T10:25:42;3.75;;;2.20;;
77105;SDS011;66057;54.718;18.426;2023-06-26T10:28:16;3.58;;;2.50;;
77105;SDS011;66057;54.718;18.426;2023-06-26T10:30:44;3.70;;;2.45;;
77105;SDS011;66057;54.718;18.426;2023-06-26T10:33:13;3.88;;;2.60;;
77105;SDS011;66057;54.718;18.426;2023-06-26T10:35:43;3.28;;;2.20;;
77105;SDS011;66057;54.718;18.426;2023-06-26T10:38:12;4.32;;;2.33;;
77105;SDS011;66057;54.718;18.426;2023-06-26T10:40:42;3.78;;;2.53;;
77105;SDS011;66057;54.718;18.426;2023-06-26T10:43:13;3.28;;;2.60;;
77105;SDS011;66057;54.718;18.426;2023-06-26T10:45:42;4.20;;;2.22;;
77105;SDS011;66057;54.718;18.426;2023-06-26T10:48:10;3.53;;;2.75;;
77105;SDS011;66057;54.718;18.426;2023-06-26T10:50:35;4.97;;;2.67;;
77105;SDS011;66057;54.718;18.426;2023-06-26T10:53:14;6.82;;;3.60;;
77105;SDS011;66057;54.718;18.426;2023-06-26T10:56:01;4.78;;;2.50;;
77105;SDS011;66057;54.718;18.426;2023-06-26T10:58:29;9.90;;;3.55;;
77105;SDS011;66057;54.718;18.426;2023-06-26T11:03:41;4.47;;;2.25;;
77105;SDS011;66057;54.718;18.426;2023-06-26T11:06:10;4.72;;;2.70;;
77105;SDS011;66057;54.718;18.426;2023-06-26T11:14:18;4.45;;;2.80;;
77105;SDS011;66057;54.718;18.426;2023-06-26T11:16:45;4.43;;;2.58;;
77105;SDS011;66057;54.718;18.426;2023-06-26T11:19:13;3.75;;;2.80;;
77105;SDS011;66057;54.718;18.426;2023-06-26T11:21:39;3.90;;;2.63;;
77105;SDS011;66057;54.718;18.426;2023-06-26T11:24:06;2.90;;;1.85;;
77105;SDS011;66057;54.718;18.426;2023-06-26T11:26:40;5.63;;;2.75;;
77105;SDS011;66057;54.718;18.426;2023-06-26T11:29:07;4.55;;;2.80;;
77105;SDS011;66057;54.718;18.426;2023-06-26T11:31:34;5.03;;;2.78;;
77105;SDS011;66057;54.718;18.426;2023-06-26T11:34:03;3.58;;;2.70;;
77105;SDS011;66057;54.718;18.426;2023-06-26T11:36:30;3.72;;;2.47;;
77105;SDS011;66057;54.718;18.426;2023-06-26T11:39:02;4.18;;;2.90;;
77105;SDS011;66057;54.718;18.426;2023-06-26T11:41:32;5.15;;;2.70;;
77105;SDS011;66057;54.718;18.426;2023-06-26T11:44:00;3.67;;;2.38;;
77105;SDS011;66057;54.718;18.426;2023-06-26T11:46:34;3.88;;;3.10;;
77105;SDS011;66057;54.718;18.426;2023-06-26T11:49:03;3.95;;;3.08;;
77105;SDS011;66057;54.718;18.426;2023-06-26T11:51:29;4.82;;;2.67;;
77105;SDS011;66057;54.718;18.426;2023-06-26T11:53:55;3.70;;;2.80;;
77105;SDS011;66057;54.718;18.426;2023-06-26T11:56:21;3.00;;;2.20;;
77105;SDS011;66057;54.718;18.426;2023-06-26T11:59:01;3.28;;;2.58;;
77105;SDS011;66057;54.718;18.426;2023-06-26T12:01:34;3.70;;;2.47;;
77105;SDS011;66057;54.718;18.426;2023-06-26T12:04:03;3.45;;;2.65;;
77105;SDS011;66057;54.718;18.426;2023-06-26T12:06:30;4.35;;;2.65;;
77105;SDS011;66057;54.718;18.426;2023-06-26T12:08:59;3.58;;;2.72;;
77105;SDS011;66057;54.718;18.426;2023-06-26T12:11:26;3.97;;;2.60;;
77105;SDS011;66057;54.718;18.426;2023-06-26T12:13:54;4.38;;;2.70;;
77105;SDS011;66057;54.718;18.426;2023-06-26T12:16:20;4.35;;;3.00;;
77105;SDS011;66057;54.718;18.426;2023-06-26T12:18:46;3.22;;;2.35;;
77105;SDS011;66057;54.718;18.426;2023-06-26T12:24:06;4.72;;;2.53;;
77105;SDS011;66057;54.718;18.426;2023-06-26T12:26:41;3.28;;;2.55;;
77105;SDS011;66057;54.718;18.426;2023-06-26T12:29:14;3.78;;;2.70;;
77105;SDS011;66057;54.718;18.426;2023-06-26T12:31:43;3.55;;;2.58;;
77105;SDS011;66057;54.718;18.426;2023-06-26T12:34:14;3.38;;;2.65;;
77105;SDS011;66057;54.718;18.426;2023-06-26T12:36:50;3.38;;;2.55;;
77105;SDS011;66057;54.718;18.426;2023-06-26T12:39:17;3.35;;;2.65;;
77105;SDS011;66057;54.718;18.426;2023-06-26T12:41:45;2.55;;;2.13;;
77105;SDS011;66057;54.718;18.426;2023-06-26T12:44:18;3.20;;;2.60;;
77105;SDS011;66057;54.718;18.426;2023-06-26T12:46:49;3.88;;;2.80;;
77105;SDS011;66057;54.718;18.426;2023-06-26T12:49:16;3.13;;;2.65;;
77105;SDS011;66057;54.718;18.426;2023-06-26T12:51:44;3.13;;;2.40;;
77105;SDS011;66057;54.718;18.426;2023-06-26T12:54:10;4.25;;;2.70;;
77105;SDS011;66057;54.718;18.426;2023-06-26T12:56:36;4.05;;;2.65;;
77105;SDS011;66057;54.718;18.426;2023-06-26T12:59:02;3.38;;;2.42;;
77105;SDS011;66057;54.718;18.426;2023-06-26T13:01:27;6.18;;;2.50;;
77105;SDS011;66057;54.718;18.426;2023-06-26T13:03:54;4.88;;;3.10;;
77105;SDS011;66057;54.718;18.426;2023-06-26T13:06:20;3.45;;;2.90;;
77105;SDS011;66057;54.718;18.426;2023-06-26T13:08:46;4.25;;;2.75;;
77105;SDS011;66057;54.718;18.426;2023-06-26T13:11:11;2.45;;;1.95;;
77105;SDS011;66057;54.718;18.426;2023-06-26T13:13:37;3.58;;;2.25;;
77105;SDS011;66057;54.718;18.426;2023-06-26T13:16:03;3.70;;;2.25;;
77105;SDS011;66057;54.718;18.426;2023-06-26T13:18:31;3.10;;;2.45;;
77105;SDS011;66057;54.718;18.426;2023-06-26T13:20:56;3.17;;;2.50;;
77105;SDS011;66057;54.718;18.426;2023-06-26T13:23:22;3.85;;;2.70;;
77105;SDS011;66057;54.718;18.426;2023-06-26T13:25:48;4.85;;;2.58;;
77105;SDS011;66057;54.718;18.426;2023-06-26T13:28:13;2.88;;;2.40;;
77105;SDS011;66057;54.718;18.426;2023-06-26T13:30:39;4.10;;;2.00;;
77105;SDS011;66057;54.718;18.426;2023-06-26T13:33:05;3.67;;;2.50;;
77105;SDS011;66057;54.718;18.426;2023-06-26T13:35:32;4.32;;;2.63;;
77105;SDS011;66057;54.718;18.426;2023-06-26T13:37:58;3.15;;;2.10;;
77105;SDS011;66057;54.718;18.426;2023-06-26T13:40:23;3.10;;;2.20;;
77105;SDS011;66057;54.718;18.426;2023-06-26T13:42:49;8.60;;;2.40;;
77105;SDS011;66057;54.718;18.426;2023-06-26T13:45:15;4.00;;;2.28;;
77105;SDS011;66057;54.718;18.426;2023-06-26T13:47:40;3.05;;;2.17;;
77105;SDS011;66057;54.718;18.426;2023-06-26T13:50:07;3.33;;;2.42;;
77105;SDS011;66057;54.718;18.426;2023-06-26T13:52:34;5.70;;;2.60;;
77105;SDS011;66057;54.718;18.426;2023-06-26T13:55:00;3.88;;;3.03;;
77105;SDS011;66057;54.718;18.426;2023-06-26T13:57:29;4.30;;;2.42;;
77105;SDS011;66057;54.718;18.426;2023-06-26T13:59:56;3.85;;;2.45;;
77105;SDS011;66057;54.718;18.426;2023-06-26T14:02:22;5.15;;;2.90;;
77105;SDS011;66057;54.718;18.426;2023-06-26T14:04:48;3.08;;;2.42;;
77105;SDS011;66057;54.718;18.426;2023-06-26T14:07:14;4.13;;;2.38;;
77105;SDS011;66057;54.718;18.426;2023-06-26T14:09:40;5.65;;;3.03;;
77105;SDS011;66057;54.718;18.426;2023-06-26T14:12:06;4.60;;;2.38;;
77105;SDS011;66057;54.718;18.426;2023-06-26T14:14:33;3.88;;;2.58;;
77105;SDS011;66057;54.718;18.426;2023-06-26T14:16:58;4.63;;;2.80;;
77105;SDS011;66057;54.718;18.426;2023-06-26T14:19:25;2.85;;;2.53;;
77105;SDS011;66057;54.718;18.426;2023-06-26T14:21:51;3.15;;;2.47;;
77105;SDS011;66057;54.718;18.426;2023-06-26T14:24:18;3.90;;;2.78;;
77105;SDS011;66057;54.718;18.426;2023-06-26T14:26:43;4.38;;;2.60;;
77105;SDS011;66057;54.718;18.426;2023-06-26T14:29:09;5.95;;;2.60;;
77105;SDS011;66057;54.718;18.426;2023-06-26T14:31:35;3.03;;;2.40;;
77105;SDS011;66057;54.718;18.426;2023-06-26T14:34:01;3.60;;;2.28;;
77105;SDS011;66057;54.718;18.426;2023-06-26T14:36:28;3.13;;;2.83;;
77105;SDS011;66057;54.718;18.426;2023-06-26T14:38:56;6.25;;;2.47;;
77105;SDS011;66057;54.718;18.426;2023-06-26T14:41:22;3.78;;;2.47;;
77105;SDS011;66057;54.718;18.426;2023-06-26T14:43:48;3.80;;;2.40;;
77105;SDS011;66057;54.718;18.426;2023-06-26T14:46:13;3.20;;;2.50;;
77105;SDS011;66057;54.718;18.426;2023-06-26T14:48:39;4.80;;;2.47;;
77105;SDS011;66057;54.718;18.426;2023-06-26T14:51:05;3.00;;;2.40;;
77105;SDS011;66057;54.718;18.426;2023-06-26T14:53:31;4.57;;;2.75;;
77105;SDS011;66057;54.718;18.426;2023-06-26T14:55:56;4.60;;;3.08;;
77105;SDS011;66057;54.718;18.426;2023-06-26T14:58:22;3.55;;;2.25;;
77105;SDS011;66057;54.718;18.426;2023-06-26T15:00:48;2.80;;;2.20;;
77105;SDS011;66057;54.718;18.426;2023-06-26T15:03:14;3.03;;;2.45;;
77105;SDS011;66057;54.718;18.426;2023-06-26T15:05:40;3.10;;;2.10;;
77105;SDS011;66057;54.718;18.426;2023-06-26T15:08:06;2.75;;;2.55;;
77105;SDS011;66057;54.718;18.426;2023-06-26T15:10:31;4.13;;;2.35;;